Time;durP1;ratioP1;P1;durP2;ratioP2;P2;SDS_P1;SDS_P2;PMS_P1;PMS_P2;Temp;Humidity;BMP_temperature;BMP_pressure;BME280_temperature;BME280_humidity;BME280_pressure;Samples;Min_cycle;Max_cycle;Signal;HPM_P1;HPM_P2
2021/05/06 10:44:45;;;;;;;30.42;29.42;;;;;;;;;;5131860;27;20464;-72
2021/05/06 10:47:14;;;;;;;32.22;31.13;;;;;;;;;;5131725;28;20166;-72
2021/05/06 10:49:49;;;;;;;32.67;31.55;;;;;;;;;;5131657;28;20162;-72
2021/05/06 10:52:17;;;;;;;37.25;35.75;;;;;;;;;;5131587;28;20193;-72
2021/05/06 10:54:53;;;;;;;33.85;32.65;;;;;;;;;;5131630;27;20188;-72
2021/05/06 10:57:21;;;;;;;34.80;33.40;;;;;;;;;;5131600;27;20174;-72
2021/05/06 10:59:47;;;;;;;35.20;33.38;;;;;;;;;;5131435;28;20735;-72
2021/05/06 11:02:47;;;;;;;37.30;35.90;;;;;;;;;;5131424;28;20216;-72
2021/05/06 11:05:17;;;;;;;33.65;32.45;;;;;;;;;;5130105;28;20584;-71
2021/05/06 11:07:43;;;;;;;33.00;31.80;;;;;;;;;;5131289;28;20177;-72
2021/05/06 11:10:09;;;;;;;34.88;33.63;;;;;;;;;;5131247;28;20519;-72
2021/05/06 11:12:35;;;;;;;35.90;34.50;;;;;;;;;;5131214;28;20166;-72
2021/05/06 11:15:05;;;;;;;36.03;34.72;;;;;;;;;;5131173;28;20689;-72
2021/05/06 11:17:37;;;;;;;36.35;35.03;;;;;;;;;;5129863;28;20194;-73
2021/05/06 11:20:23;;;;;;;35.22;33.92;;;;;;;;;;5130960;28;20171;-72
2021/05/06 11:22:53;;;;;;;37.20;35.83;;;;;;;;;;5130747;27;20194;-72
2021/05/06 11:25:34;;;;;;;38.83;37.38;;;;;;;;;;5131232;27;20159;-72
2021/05/06 11:28:00;;;;;;;38.40;36.97;;;;;;;;;;5130902;27;20186;-72
2021/05/06 11:30:45;;;;;;;41.65;40.05;;;;;;;;;;5130950;28;20242;-72
2021/05/06 11:33:18;;;;;;;37.42;36.03;;;;;;;;;;5130720;27;20219;-72
2021/05/06 11:36:03;;;;;;;38.42;36.83;;;;;;;;;;5130857;27;20194;-72
2021/05/06 11:38:35;;;;;;;37.90;36.50;;;;;;;;;;5131214;27;20158;-72
2021/05/06 11:41:05;;;;;;;37.72;36.33;;;;;;;;;;5134540;28;20173;-72
2021/05/06 11:43:32;;;;;;;38.05;36.65;;;;;;;;;;5130698;28;20218;-72
2021/05/06 11:46:10;;;;;;;38.30;36.83;;;;;;;;;;5131158;28;20554;-72
2021/05/06 11:48:40;;;;;;;38.30;36.90;;;;;;;;;;5129391;28;20593;-72
2021/05/06 11:51:07;;;;;;;37.85;36.45;;;;;;;;;;5130738;28;20245;-72
2021/05/06 11:53:35;;;;;;;40.97;39.42;;;;;;;;;;5130519;28;20174;-72
2021/05/06 11:56:09;;;;;;;38.20;36.80;;;;;;;;;;5116194;28;20179;-71
2021/05/06 11:58:38;;;;;;;40.88;39.28;;;;;;;;;;5116936;28;20174;-72
2021/05/06 12:01:05;;;;;;;39.85;38.35;;;;;;;;;;5116708;28;20175;-72
2021/05/06 12:03:34;;;;;;;39.38;37.90;;;;;;;;;;5116614;28;20187;-71
2021/05/06 12:06:01;;;;;;;41.65;39.75;;;;;;;;;;5115270;28;20206;-72
2021/05/06 12:08:30;;;;;;;42.45;40.70;;;;;;;;;;5116663;28;20159;-72
2021/05/06 12:10:57;;;;;;;41.47;39.88;;;;;;;;;;5116512;27;20162;-72
2021/05/06 12:13:30;;;;;;;41.80;40.20;;;;;;;;;;5116440;28;20163;-71
2021/05/06 12:16:13;;;;;;;40.28;38.78;;;;;;;;;;5116352;28;20705;-72
2021/05/06 12:18:40;;;;;;;41.10;39.50;;;;;;;;;;5116415;28;20167;-72
2021/05/06 12:21:06;;;;;;;39.97;38.38;;;;;;;;;;5116353;28;20635;-72
2021/05/06 12:23:33;;;;;;;41.05;39.50;;;;;;;;;;5116434;28;20195;-72
2021/05/06 12:25:59;;;;;;;44.13;42.33;;;;;;;;;;5115108;28;20526;-72
2021/05/06 12:28:25;;;;;;;40.97;39.38;;;;;;;;;;5116496;28;20620;-73
2021/05/06 12:30:59;;;;;;;37.85;36.45;;;;;;;;;;5116311;28;20258;-73
2021/05/06 12:33:29;;;;;;;37.42;36.03;;;;;;;;;;5116177;28;20167;-73
2021/05/06 12:35:56;;;;;;;38.38;36.97;;;;;;;;;;5117249;28;20526;-74
2021/05/06 12:38:30;;;;;;;37.30;35.90;;;;;;;;;;5115479;28;20171;-74
2021/05/06 12:40:57;;;;;;;35.35;34.08;;;;;;;;;;5115999;28;20226;-73
2021/05/06 12:43:30;;;;;;;38.70;37.20;;;;;;;;;;5115754;28;20227;-74
2021/05/06 12:46:01;;;;;;;38.60;37.10;;;;;;;;;;5116432;28;20163;-73
2021/05/06 12:48:43;;;;;;;38.55;37.10;;;;;;;;;;5114809;28;20195;-73
2021/05/06 12:51:11;;;;;;;39.95;38.38;;;;;;;;;;5116236;28;20159;-73
2021/05/06 12:53:37;;;;;;;37.80;36.40;;;;;;;;;;5116243;28;20171;-73
2021/05/06 12:56:24;;;;;;;34.83;33.53;;;;;;;;;;5116130;28;20171;-74
2021/05/06 12:59:00;;;;;;;35.80;34.35;;;;;;;;;;5114718;28;20175;-74
2021/05/06 13:01:31;;;;;;;35.83;34.53;;;;;;;;;;5116163;28;20175;-73
2021/05/06 13:04:04;;;;;;;37.08;35.67;;;;;;;;;;5114497;28;20475;-73
2021/05/06 13:06:34;;;;;;;36.67;35.35;;;;;;;;;;5113358;28;20171;-73
2021/05/06 13:09:00;;;;;;;35.38;34.08;;;;;;;;;;5114066;28;20174;-72
2021/05/06 13:11:26;;;;;;;36.50;35.17;;;;;;;;;;5115183;28;20159;-72
2021/05/06 13:13:53;;;;;;;38.63;37.20;;;;;;;;;;5115237;28;20250;-72
2021/05/06 13:16:37;;;;;;;40.13;38.63;;;;;;;;;;5115251;28;20202;-72
2021/05/06 13:19:05;;;;;;;39.92;38.42;;;;;;;;;;5113840;28;20560;-72
2021/05/06 13:21:32;;;;;;;39.65;38.15;;;;;;;;;;5115064;28;20174;-72
2021/05/06 13:23:58;;;;;;;41.15;39.50;;;;;;;;;;5114908;28;20191;-72
2021/05/06 13:26:35;;;;;;;41.53;39.83;;;;;;;;;;5114916;28;20651;-73
2021/05/06 13:29:03;;;;;;;38.60;37.17;;;;;;;;;;5114909;28;20530;-72
2021/05/06 13:31:33;;;;;;;39.13;37.63;;;;;;;;;;5114799;28;20167;-72
2021/05/06 13:34:13;;;;;;;39.63;38.03;;;;;;;;;;5114764;28;20193;-72
2021/05/06 13:36:40;;;;;;;40.38;38.78;;;;;;;;;;5114825;28;20167;-72
2021/05/06 13:39:10;;;;;;;39.63;38.13;;;;;;;;;;5114732;28;20163;-72
2021/05/06 13:41:38;;;;;;;40.38;38.85;;;;;;;;;;5114798;28;20171;-72
2021/05/06 13:44:05;;;;;;;41.80;40.20;;;;;;;;;;5114457;28;20301;-73
2021/05/06 13:46:34;;;;;;;44.20;42.50;;;;;;;;;;5114971;28;20219;-73
2021/05/06 13:49:04;;;;;;;45.28;43.42;;;;;;;;;;5114661;28;20159;-73
2021/05/06 13:51:31;;;;;;;44.78;42.83;;;;;;;;;;5113176;28;20175;-73
2021/05/06 13:53:57;;;;;;;44.75;42.97;;;;;;;;;;5114586;28;20167;-73
2021/05/06 13:56:24;;;;;;;44.95;43.20;;;;;;;;;;5114438;28;20257;-73
2021/05/06 13:58:50;;;;;;;46.13;44.22;;;;;;;;;;5114436;28;20171;-73
2021/05/06 14:01:16;;;;;;;44.35;42.63;;;;;;;;;;5113019;28;20178;-73
2021/05/06 14:03:42;;;;;;;43.38;41.13;;;;;;;;;;5113002;28;20293;-73
2021/05/06 14:06:08;;;;;;;40.75;39.22;;;;;;;;;;5114654;28;20167;-73
2021/05/06 14:08:35;;;;;;;40.75;39.20;;;;;;;;;;5113125;28;20224;-72
2021/05/06 14:11:01;;;;;;;40.45;38.92;;;;;;;;;;5114153;28;20163;-69
2021/05/06 14:13:28;;;;;;;39.95;38.45;;;;;;;;;;5114189;28;20174;-69
2021/05/06 14:15:54;;;;;;;42.75;40.85;;;;;;;;;;5114130;28;20249;-69
2021/05/06 14:18:20;;;;;;;39.95;38.45;;;;;;;;;;5112572;28;20183;-69
2021/05/06 14:20:47;;;;;;;41.25;39.65;;;;;;;;;;5114042;28;20180;-68
2021/05/06 14:23:16;;;;;;;41.17;39.58;;;;;;;;;;5114055;27;20193;-68
2021/05/06 14:25:42;;;;;;;41.33;39.72;;;;;;;;;;5113977;28;20159;-68
2021/05/06 14:28:08;;;;;;;42.33;40.63;;;;;;;;;;5113849;28;20206;-68
2021/05/06 14:30:34;;;;;;;40.70;39.15;;;;;;;;;;5113930;28;20208;-68
2021/05/06 14:33:00;;;;;;;40.55;38.92;;;;;;;;;;5113904;28;20224;-68
2021/05/06 14:35:26;;;;;;;47.72;45.63;;;;;;;;;;5113871;28;20194;-68
2021/05/06 14:37:52;;;;;;;39.55;38.05;;;;;;;;;;5113889;28;20171;-68
2021/05/06 14:40:18;;;;;;;39.17;37.70;;;;;;;;;;5113825;28;20174;-68
2021/05/06 14:42:44;;;;;;;41.67;40.08;;;;;;;;;;5113534;28;20227;-68
2021/05/06 14:45:10;;;;;;;41.22;39.60;;;;;;;;;;5113780;28;20246;-68
2021/05/06 14:47:37;;;;;;;37.88;36.47;;;;;;;;;;5113705;28;20655;-68
2021/05/06 14:50:05;;;;;;;37.65;36.25;;;;;;;;;;5113751;28;20526;-68
2021/05/06 15:30:00;;;;;;;31.73;30.63;;;;;;;;;;5132058;27;20467;-67
2021/05/06 15:32:26;;;;;;;33.38;32.08;;;;;;;;;;5131667;28;20245;-67
2021/05/06 15:34:55;;;;;;;33.25;32.05;;;;;;;;;;5131502;28;20755;-68
2021/05/06 15:37:21;;;;;;;33.70;32.40;;;;;;;;;;5131633;28;20159;-68
2021/05/06 15:39:47;;;;;;;32.47;31.38;;;;;;;;;;5131484;28;20243;-68
2021/05/06 16:18:46;;;;;;;33.85;32.45;;;;;;;;;;5090856;28;21098;-68
2021/05/06 16:21:12;;;;;;;33.70;32.50;;;;;;;;;;5090830;28;20192;-68
2021/05/06 16:23:39;;;;;;;35.33;34.03;;;;;;;;;;5090731;28;20168;-68
2021/05/06 16:26:06;;;;;;;37.75;35.97;;;;;;;;;;5090806;28;20160;-68
2021/05/06 16:28:32;;;;;;;35.50;34.10;;;;;;;;;;5090513;28;20641;-68
2021/05/06 17:00:35;;;;;;;32.67;31.38;;;;;;;;;;5090715;28;20943;-68
2021/05/06 17:03:01;;;;;;;34.80;33.50;;;;;;;;;;5090659;28;20176;-68
2021/05/06 17:05:28;;;;;;;32.55;31.45;;;;;;;;;;5090632;28;20629;-68
2021/05/06 17:07:54;;;;;;;33.80;32.50;;;;;;;;;;5090618;28;20199;-68
2021/05/06 17:10:21;;;;;;;32.83;31.73;;;;;;;;;;5090513;28;20174;-68
